Terminal Aerodrome Forecast
Issued by NWS Springfield, MO

Current Version | Previous Version | Text Only | Print | Product List | Glossary On
Versions: 1 2 3 4 5 6 7 8 9 10 11 12 13 14
000
FTUS43 KSGF 292051 AAB
TAFSGF
TAF AMD
KSGF 292051Z 2921/3018 09005KT P6SM SCT060 BKN150
     FM300100 VRB04KT P6SM SCT250
     FM301400 13004KT P6SM BKN200=

USA.gov is the U.S. government's official web portal to all federal, state and local government web resources and services.